Fairmount City, Pennsylvania
Current Conditions -  °F | °C
As of 2:41 AM on Saturday 29 Nov 2014 (Local Time) from KDUJ Reporting Station
Light Snow Light Snow  
Wind Chill: 22°   Ceiling: 3000
Heat Index: 22°   Visibility: 2.5mi
Dew Point: 19°   Wind: 3mph
Humidity: 89%   Direction: 190°S
Pressure: 30.15"   Gusts: NA
Location:  41.01°N, 79.32°W
Report Text: KDUJ 290741Z AUTO 19003KT 2 1/2SM -SN BR OVC030 M06/M07 A3015 RMK AO2 P0001 T10561072
Loading
Personal Weather Stations






























Interactive Weather Map New forecast layout! Learn more

10-Day Weather Forecast

Advertisements
Track Severe Weather on mobile